createdAt,value
2019-05-01T00:00:45.720Z,5.67
2019-05-01T00:03:15.832Z,5.66
2019-05-01T00:05:44.103Z,5.65
2019-05-01T00:08:11.381Z,5.63
2019-05-01T00:10:37.820Z,5.65
2019-05-01T00:13:04.571Z,5.63
2019-05-01T00:15:33.101Z,5.58
2019-05-01T00:17:59.470Z,5.55
2019-05-01T00:20:25.711Z,5.53
2019-05-01T00:22:51.824Z,5.50
2019-05-01T00:25:18.026Z,5.50
2019-05-01T00:27:44.282Z,5.44
2019-05-01T00:30:12.997Z,5.42
2019-05-01T00:32:39.109Z,5.38
2019-05-01T00:35:06.456Z,5.35
2019-05-01T00:37:33.205Z,5.36
2019-05-01T00:39:59.529Z,5.35
2019-05-01T00:42:25.719Z,5.32
2019-05-01T00:44:51.870Z,5.28
2019-05-01T00:47:18.180Z,5.24
2019-05-01T00:49:44.345Z,5.23
2019-05-01T00:52:10.549Z,5.18
2019-05-01T00:54:38.543Z,5.17
2019-05-01T00:57:09.605Z,5.21
2019-05-01T00:59:40.332Z,5.24
2019-05-01T01:02:09.490Z,5.25
2019-05-01T01:04:35.838Z,5.28
2019-05-01T01:07:02.142Z,5.27
2019-05-01T01:09:28.338Z,5.23
2019-05-01T01:11:54.527Z,5.21
2019-05-01T01:14:20.784Z,5.21
2019-05-01T01:16:47.046Z,5.20
2019-05-01T01:19:13.397Z,5.18
2019-05-01T01:21:39.716Z,5.19
2019-05-01T01:24:06.133Z,5.23
2019-05-01T01:26:32.749Z,5.23
2019-05-01T01:28:59.187Z,5.22
2019-05-01T01:31:25.412Z,5.26
2019-05-01T01:33:51.841Z,5.28
2019-05-01T01:36:17.969Z,5.32
2019-05-01T01:38:44.345Z,5.36
2019-05-01T01:41:10.711Z,5.36
2019-05-01T01:43:41.747Z,5.37
2019-05-01T01:46:15.660Z,5.32
2019-05-01T01:48:42.233Z,5.34
2019-05-01T01:51:08.490Z,5.35
2019-05-01T01:53:35.353Z,5.36
2019-05-01T01:56:01.710Z,5.34
2019-05-01T01:58:28.448Z,5.32
2019-05-01T02:01:13.613Z,5.31
2019-05-01T02:03:41.960Z,5.29
2019-05-01T02:06:08.448Z,5.29
2019-05-01T02:08:35.129Z,5.24
2019-05-01T02:11:01.394Z,5.21
2019-05-01T02:13:27.726Z,5.22
2019-05-01T02:15:53.944Z,5.27
2019-05-01T02:18:20.277Z,5.32
2019-05-01T02:20:46.490Z,5.37
2019-05-01T02:23:12.953Z,5.48
2019-05-01T02:25:41.495Z,5.57
2019-05-01T02:28:21.730Z,5.63
2019-05-01T02:30:50.579Z,5.67
2019-05-01T02:33:17.006Z,5.74
2019-05-01T02:35:44.223Z,5.84
2019-05-01T02:38:11.435Z,5.91
2019-05-01T02:40:41.418Z,6.01
2019-05-01T02:43:11.526Z,6.10
2019-05-01T02:45:42.076Z,6.18
2019-05-01T02:48:09.113Z,6.24
2019-05-01T02:50:37.236Z,6.29
2019-05-01T02:53:03.444Z,6.33
2019-05-01T02:55:31.894Z,6.40
2019-05-01T02:57:58.607Z,6.47
2019-05-01T03:00:25.426Z,6.48
2019-05-01T03:02:52.289Z,6.52
2019-05-01T03:05:18.663Z,6.56
2019-05-01T03:07:44.967Z,6.56
2019-05-01T03:10:11.435Z,6.56
2019-05-01T03:12:41.290Z,6.56
2019-05-01T03:15:08.626Z,6.57
2019-05-01T03:17:50.500Z,6.60
2019-05-01T03:20:21.652Z,6.62
2019-05-01T03:22:50.938Z,6.63
2019-05-01T03:25:17.475Z,6.63
2019-05-01T03:27:43.829Z,6.70
2019-05-01T03:30:10.505Z,6.73
2019-05-01T03:32:36.963Z,6.71
2019-05-01T03:35:05.221Z,6.74
2019-05-01T03:37:31.738Z,6.76
2019-05-01T03:39:58.191Z,6.80
2019-05-01T03:42:24.616Z,6.83
2019-05-01T03:44:51.130Z,6.83
2019-05-01T03:47:17.667Z,6.84
2019-05-01T03:49:44.099Z,6.87
2019-05-01T03:52:10.546Z,6.90
2019-05-01T03:54:36.814Z,6.94
2019-05-01T03:57:03.356Z,6.95
2019-05-01T03:59:29.669Z,6.98
2019-05-01T04:01:58.139Z,7.02
2019-05-01T04:04:29.272Z,7.06
2019-05-01T04:06:55.579Z,7.07
2019-05-01T04:09:22.005Z,7.12
2019-05-01T04:11:48.508Z,7.22
2019-05-01T04:14:14.922Z,7.27
2019-05-01T04:16:43.236Z,7.30
2019-05-01T04:19:09.841Z,7.32
2019-05-01T04:21:40.847Z,7.32
2019-05-01T04:24:08.455Z,7.34
2019-05-01T04:26:35.929Z,7.33
2019-05-01T04:29:10.277Z,7.34
2019-05-01T04:31:38.739Z,7.34
2019-05-01T04:34:16.293Z,7.36
2019-05-01T04:36:44.907Z,7.36
2019-05-01T04:39:11.562Z,7.35
2019-05-01T04:41:37.934Z,7.38
2019-05-01T04:44:04.400Z,7.43
2019-05-01T04:46:31.137Z,7.45
2019-05-01T04:48:59.951Z,7.48
2019-05-01T04:51:27.322Z,7.53
2019-05-01T04:53:53.677Z,7.58
2019-05-01T04:56:20.184Z,7.64
2019-05-01T04:58:46.555Z,7.68
2019-05-01T05:01:13.205Z,7.72
2019-05-01T05:03:39.693Z,7.73
2019-05-01T05:06:06.590Z,7.72
2019-05-01T05:08:33.018Z,7.72
2019-05-01T05:11:01.342Z,7.71
2019-05-01T05:13:35.115Z,7.73
2019-05-01T05:16:03.438Z,7.77
2019-05-01T05:18:29.956Z,7.82
2019-05-01T05:20:56.791Z,7.91
2019-05-01T05:23:23.016Z,8.00
2019-05-01T05:25:49.640Z,8.10
2019-05-01T05:28:16.104Z,8.24
2019-05-01T05:30:43.443Z,8.38
2019-05-01T05:33:18.154Z,8.50
2019-05-01T05:35:40.439Z,8.60
2019-05-01T05:38:10.036Z,8.64
2019-05-01T05:40:37.221Z,8.62
2019-05-01T05:43:03.982Z,8.61
2019-05-01T05:45:32.642Z,8.62
2019-05-01T05:47:59.861Z,8.67
2019-05-01T05:50:29.997Z,8.71
2019-05-01T05:53:00.509Z,8.74
2019-05-01T05:55:31.059Z,8.72
2019-05-01T05:58:01.552Z,8.72
2019-05-01T06:00:49.022Z,8.92
2019-05-01T06:03:35.881Z,8.95
2019-05-01T06:06:08.140Z,8.92
2019-05-01T06:08:37.562Z,8.88
2019-05-01T06:11:06.001Z,8.84
2019-05-01T06:13:52.526Z,8.85
2019-05-01T06:16:29.501Z,8.87
2019-05-01T06:19:03.628Z,8.97
2019-05-01T06:21:47.232Z,9.07
2019-05-01T06:24:19.238Z,9.17
2019-05-01T06:26:45.678Z,9.26
2019-05-01T06:29:12.209Z,9.35
2019-05-01T06:31:38.867Z,9.45
2019-05-01T06:34:05.431Z,9.53
2019-05-01T06:36:32.174Z,9.61
2019-05-01T06:38:59.399Z,9.67
2019-05-01T06:41:28.634Z,9.71
2019-05-01T06:43:56.970Z,9.83
2019-05-01T06:46:28.942Z,9.88
2019-05-01T06:49:14.053Z,9.99
2019-05-01T06:51:47.983Z,10.09
2019-05-01T06:54:16.287Z,10.21
2019-05-01T06:56:43.508Z,10.26
2019-05-01T06:59:11.299Z,10.24
2019-05-01T07:01:38.466Z,10.31
2019-05-01T07:04:05.344Z,10.31
2019-05-01T07:06:32.982Z,10.27
2019-05-01T07:09:00.668Z,10.30
2019-05-01T07:11:27.322Z,10.31
2019-05-01T07:13:55.803Z,10.36
2019-05-01T07:16:22.348Z,10.45
2019-05-01T07:18:50.375Z,10.56
2019-05-01T07:21:16.573Z,10.57
2019-05-01T07:23:43.575Z,10.61
2019-05-01T07:26:13.361Z,10.61
2019-05-01T07:28:39.911Z,10.64
2019-05-01T07:31:07.129Z,10.66
2019-05-01T07:33:34.361Z,10.72
2019-05-01T07:36:01.046Z,10.78
2019-05-01T07:38:28.254Z,10.78
2019-05-01T07:40:58.859Z,10.82
2019-05-01T07:43:42.042Z,10.87
2019-05-01T07:46:18.312Z,10.97
2019-05-01T07:48:44.897Z,11.16
2019-05-01T07:51:11.195Z,11.28
2019-05-01T07:53:38.016Z,11.41
2019-05-01T07:56:05.911Z,11.50
2019-05-01T07:58:32.819Z,11.56
2019-05-01T08:01:03.852Z,11.72
2019-05-01T08:03:30.539Z,11.81
2019-05-01T08:05:57.078Z,11.91
2019-05-01T08:08:23.301Z,12.04
2019-05-01T08:10:49.678Z,12.11
2019-05-01T08:13:15.920Z,12.19
2019-05-01T08:15:42.290Z,12.19
2019-05-01T08:18:13.336Z,12.17
2019-05-01T08:20:41.342Z,12.14
2019-05-01T08:23:07.771Z,12.19
2019-05-01T08:25:35.707Z,12.35
2019-05-01T08:28:03.881Z,12.52
2019-05-01T08:30:48.107Z,12.69
2019-05-01T08:33:20.091Z,12.59
2019-05-01T08:35:47.301Z,12.52
2019-05-01T08:38:13.391Z,12.56
2019-05-01T08:40:39.635Z,12.63
2019-05-01T08:43:05.739Z,12.65
2019-05-01T08:45:40.648Z,12.59
2019-05-01T08:48:06.975Z,12.48
2019-05-01T08:50:33.336Z,12.46
2019-05-01T08:52:59.581Z,12.51
2019-05-01T08:55:25.817Z,12.56
2019-05-01T08:57:52.419Z,12.61
2019-05-01T09:00:19.395Z,12.70
2019-05-01T09:02:45.575Z,12.75
2019-05-01T09:05:27.552Z,12.84
2019-05-01T09:07:40.632Z,12.95
2019-05-01T09:10:09.113Z,13.02
2019-05-01T09:12:35.531Z,13.08
2019-05-01T09:15:07.263Z,13.08
2019-05-01T09:17:31.385Z,12.97
2019-05-01T09:19:57.477Z,12.87
2019-05-01T09:22:24.015Z,12.98
2019-05-01T09:24:50.320Z,13.15
2019-05-01T09:27:18.893Z,13.42
2019-05-01T09:29:51.631Z,13.79
2019-05-01T09:32:19.013Z,14.10
2019-05-01T09:34:45.283Z,14.48
2019-05-01T09:37:11.620Z,14.99
2019-05-01T09:39:38.346Z,15.58
2019-05-01T09:42:06.717Z,15.95
2019-05-01T09:44:33.305Z,16.06
2019-05-01T09:46:59.633Z,16.23
2019-05-01T09:49:25.755Z,16.10
2019-05-01T09:51:59.915Z,15.90
2019-05-01T09:54:27.927Z,15.97
2019-05-01T09:56:54.246Z,16.02
2019-05-01T09:59:20.361Z,16.09
2019-05-01T10:01:47.790Z,16.41
2019-05-01T10:04:14.043Z,16.72
2019-05-01T10:06:40.346Z,16.79
2019-05-01T10:09:07.150Z,16.50
2019-05-01T10:11:35.997Z,16.40
2019-05-01T10:16:30.616Z,16.78
2019-05-01T10:18:56.794Z,17.00
2019-05-01T10:21:27.310Z,16.96
2019-05-01T10:23:51.700Z,16.96
2019-05-01T10:26:24.089Z,17.39
2019-05-01T10:29:08.102Z,17.39
2019-05-01T10:31:53.288Z,17.78
2019-05-01T10:34:30.382Z,18.22
2019-05-01T10:36:56.984Z,18.68
2019-05-01T10:39:23.261Z,18.45
2019-05-01T10:41:49.435Z,18.04
2019-05-01T10:44:15.717Z,18.03
2019-05-01T10:46:42.050Z,18.15
2019-05-01T10:49:08.232Z,17.97
2019-05-01T10:51:34.631Z,17.62
2019-05-01T10:54:00.911Z,17.42
2019-05-01T10:56:27.126Z,17.52
2019-05-01T10:58:53.491Z,18.68
2019-05-01T11:01:24.311Z,20.97
2019-05-01T11:03:50.537Z,21.62
2019-05-01T11:06:16.902Z,20.60
2019-05-01T11:08:43.244Z,19.96
2019-05-01T11:11:09.443Z,19.07
2019-05-01T11:13:35.674Z,18.57
2019-05-01T11:16:02.219Z,18.24
2019-05-01T11:18:28.340Z,18.28
2019-05-01T11:20:54.697Z,18.52
2019-05-01T11:23:20.806Z,18.95
2019-05-01T11:25:47.252Z,19.10
2019-05-01T11:28:13.373Z,18.52
2019-05-01T11:30:39.787Z,18.05
2019-05-01T11:33:19.437Z,17.81
2019-05-01T11:36:09.735Z,17.55
2019-05-01T11:38:51.979Z,16.88
2019-05-01T11:41:26.148Z,16.28
2019-05-01T11:43:52.497Z,15.83
2019-05-01T11:46:18.917Z,15.87
2019-05-01T11:48:46.232Z,16.32
2019-05-01T11:51:12.649Z,17.50
2019-05-01T11:53:38.810Z,17.50
2019-05-01T11:56:05.043Z,17.82
2019-05-01T11:58:31.205Z,19.79
2019-05-01T12:00:59.325Z,21.64
2019-05-01T12:03:25.476Z,22.92
2019-05-01T12:05:51.745Z,24.64
2019-05-01T12:08:17.982Z,25.76
2019-05-01T12:10:44.315Z,26.57
2019-05-01T12:13:11.637Z,27.18
2019-05-01T12:15:37.894Z,27.50
2019-05-01T12:18:04.085Z,27.80
2019-05-01T12:20:30.268Z,27.32
2019-05-01T12:22:56.540Z,27.71
2019-05-01T12:25:22.839Z,28.33
2019-05-01T12:27:48.982Z,28.61
2019-05-01T12:30:18.103Z,28.82
2019-05-01T12:32:44.428Z,29.30
2019-05-01T12:35:11.909Z,29.97
2019-05-01T12:37:40.324Z,30.38
2019-05-01T12:40:09.483Z,30.39
2019-05-01T12:42:36.152Z,30.54
2019-05-01T12:45:05.635Z,31.04
2019-05-01T12:47:38.071Z,30.90
2019-05-01T12:50:08.205Z,30.67
2019-05-01T12:52:38.859Z,30.85
2019-05-01T12:55:10.597Z,30.96
2019-05-01T12:57:36.771Z,31.10
2019-05-01T13:00:09.197Z,31.00
2019-05-01T13:02:35.842Z,31.20
2019-05-01T13:05:04.424Z,31.95
2019-05-01T13:07:30.763Z,32.62
2019-05-01T13:09:57.898Z,32.77
2019-05-01T13:12:24.225Z,32.87
2019-05-01T13:14:50.408Z,33.08
2019-05-01T13:17:16.712Z,33.42
2019-05-01T13:19:43.018Z,33.76
2019-05-01T13:22:09.382Z,33.89
2019-05-01T13:24:37.502Z,34.06
2019-05-01T13:27:14.964Z,34.01
2019-05-01T13:29:45.995Z,33.97
2019-05-01T13:32:17.160Z,33.85
2019-05-01T13:34:44.573Z,33.30
2019-05-01T13:37:10.853Z,33.61
2019-05-01T13:39:37.128Z,33.54
2019-05-01T13:42:03.879Z,33.44
2019-05-01T13:44:30.083Z,33.26
2019-05-01T13:46:57.088Z,32.79
2019-05-01T13:49:23.515Z,32.80
2019-05-01T13:51:49.769Z,32.73
2019-05-01T13:54:16.066Z,32.28
2019-05-01T13:56:43.508Z,30.68
2019-05-01T13:59:11.352Z,29.55
2019-05-01T14:01:37.606Z,29.67
2019-05-01T14:04:03.778Z,30.54
2019-05-01T14:06:30.087Z,30.71
2019-05-01T14:08:56.315Z,30.84
2019-05-01T14:11:22.626Z,31.38
2019-05-01T14:13:49.026Z,30.94
2019-05-01T14:16:15.292Z,31.02
2019-05-01T14:18:41.719Z,30.95
2019-05-01T14:21:10.059Z,31.04
2019-05-01T14:23:38.738Z,31.62
2019-05-01T14:26:05.964Z,31.88
2019-05-01T14:28:33.483Z,31.92
2019-05-01T14:30:59.715Z,31.52
2019-05-01T14:33:26.052Z,31.21
2019-05-01T14:35:52.187Z,31.35
2019-05-01T14:38:18.507Z,31.35
2019-05-01T14:40:44.819Z,31.75
2019-05-01T14:43:11.097Z,32.10
2019-05-01T14:45:38.477Z,32.38
2019-05-01T14:48:04.985Z,32.40
2019-05-01T14:50:32.820Z,32.48
2019-05-01T14:52:59.077Z,32.41
2019-05-01T14:55:25.632Z,32.41
2019-05-01T14:57:51.865Z,32.64
2019-05-01T15:00:19.284Z,32.63
2019-05-01T15:02:45.534Z,32.54
2019-05-01T15:05:11.902Z,32.11
2019-05-01T15:07:43.638Z,31.72
2019-05-01T15:10:07.540Z,31.65
2019-05-01T15:12:33.856Z,31.37
2019-05-01T15:15:01.951Z,30.41
2019-05-01T15:17:39.318Z,28.69
2019-05-01T15:20:06.540Z,28.15
2019-05-01T15:22:32.926Z,27.82
2019-05-01T15:24:59.099Z,26.55
2019-05-01T15:27:25.382Z,26.83
2019-05-01T15:29:51.641Z,26.56
2019-05-01T15:32:17.987Z,26.40
2019-05-01T15:34:44.248Z,25.87
2019-05-01T15:37:10.554Z,25.24
2019-05-01T15:39:41.875Z,24.52
2019-05-01T15:42:15.895Z,24.11
2019-05-01T15:44:43.496Z,23.83
2019-05-01T15:47:09.691Z,23.50
2019-05-01T15:49:36.007Z,23.15
2019-05-01T15:52:02.245Z,22.89
2019-05-01T15:54:28.493Z,22.64
2019-05-01T15:56:54.634Z,22.27
2019-05-01T15:59:20.898Z,22.02
2019-05-01T16:01:47.077Z,21.84
2019-05-01T16:04:13.425Z,21.64
2019-05-01T16:06:39.637Z,21.41
2019-05-01T16:09:06.710Z,21.27
2019-05-01T16:11:44.651Z,21.19
2019-05-01T16:14:11.340Z,21.04
2019-05-01T16:16:37.596Z,20.99
2019-05-01T16:19:03.831Z,21.05
2019-05-01T16:21:31.243Z,20.88
2019-05-01T16:23:58.714Z,20.80
2019-05-01T16:26:25.548Z,20.69
2019-05-01T16:28:51.868Z,20.57
2019-05-01T16:31:18.039Z,20.34
2019-05-01T16:33:45.231Z,20.16
2019-05-01T16:36:11.492Z,20.07
2019-05-01T16:38:51.580Z,19.99
2019-05-01T16:41:17.776Z,19.89
2019-05-01T16:43:43.928Z,19.78
2019-05-01T16:46:10.235Z,19.73
2019-05-01T16:48:36.472Z,19.75
2019-05-01T16:51:02.919Z,19.66
2019-05-01T16:53:29.305Z,19.45
2019-05-01T16:55:57.006Z,19.29
2019-05-01T16:58:23.451Z,19.21
2019-05-01T17:00:55.712Z,19.09
2019-05-01T17:03:24.258Z,18.99
2019-05-01T17:05:55.168Z,18.93
2019-05-01T17:08:40.026Z,18.86
2019-05-01T17:11:06.788Z,18.77
2019-05-01T17:13:33.195Z,18.64
2019-05-01T17:15:59.537Z,18.37
2019-05-01T17:18:25.802Z,18.28
2019-05-01T17:20:52.047Z,18.28
2019-05-01T17:23:18.286Z,18.26
2019-05-01T17:25:44.540Z,18.20
2019-05-01T17:28:10.969Z,18.14
2019-05-01T17:30:40.328Z,18.21
2019-05-01T17:33:06.836Z,18.01
2019-05-01T17:35:37.016Z,18.01
2019-05-01T17:38:01.653Z,17.87
2019-05-01T17:40:28.340Z,17.72
2019-05-01T17:42:54.667Z,17.56
2019-05-01T17:45:20.949Z,17.50
2019-05-01T17:47:47.125Z,17.43
2019-05-01T17:50:16.410Z,17.36
2019-05-01T17:52:41.861Z,17.31
2019-05-01T17:55:08.171Z,17.22
2019-05-01T17:57:34.449Z,17.15
2019-05-01T18:00:02.552Z,17.07
2019-05-01T18:02:47.734Z,16.97
2019-05-01T18:05:32.767Z,16.94
2019-05-01T18:07:58.944Z,16.87
2019-05-01T18:10:25.175Z,16.80
2019-05-01T18:12:51.302Z,16.72
2019-05-01T18:15:17.898Z,16.64
2019-05-01T18:17:44.226Z,16.59
2019-05-01T18:20:10.942Z,16.55
2019-05-01T18:22:45.224Z,16.46
2019-05-01T18:25:13.916Z,16.41
2019-05-01T18:27:42.022Z,16.31
2019-05-01T18:30:09.937Z,16.24
2019-05-01T18:32:41.485Z,16.18
2019-05-01T18:35:14.075Z,16.12
2019-05-01T18:37:48.655Z,16.03
2019-05-01T18:40:20.102Z,15.98
2019-05-01T18:42:46.348Z,15.93
2019-05-01T18:45:20.034Z,15.85
2019-05-01T18:47:46.336Z,15.79
2019-05-01T18:50:13.648Z,15.69
2019-05-01T18:52:40.153Z,15.66
2019-05-01T18:55:06.832Z,15.63
2019-05-01T18:57:33.049Z,15.62
2019-05-01T18:59:59.175Z,15.57
2019-05-01T19:02:26.228Z,15.50
2019-05-01T19:04:52.550Z,15.44
2019-05-01T19:07:18.827Z,15.38
2019-05-01T19:09:45.070Z,15.26
2019-05-01T19:12:12.631Z,15.13
2019-05-01T19:14:38.830Z,15.07
2019-05-01T19:17:05.127Z,14.96
2019-05-01T19:19:31.413Z,14.85
2019-05-01T19:21:57.838Z,14.75
2019-05-01T19:24:24.557Z,14.63
2019-05-01T19:26:50.837Z,14.56
2019-05-01T19:29:17.162Z,14.47
2019-05-01T19:31:43.727Z,14.35
2019-05-01T19:34:10.097Z,14.28
2019-05-01T19:36:40.400Z,14.21
2019-05-01T19:39:06.791Z,14.17
2019-05-01T19:41:34.289Z,14.09
2019-05-01T19:44:00.512Z,14.00
2019-05-01T19:46:26.685Z,13.96
2019-05-01T19:48:52.947Z,13.91
2019-05-01T19:51:23.616Z,13.84
2019-05-01T19:53:51.666Z,13.80
2019-05-01T19:56:16.633Z,13.81
2019-05-01T19:58:43.814Z,13.83
2019-05-01T20:01:10.121Z,13.83
2019-05-01T20:03:37.122Z,13.84
2019-05-01T20:06:06.088Z,13.86
2019-05-01T20:08:33.245Z,13.86
2019-05-01T20:10:59.789Z,13.86
2019-05-01T20:13:25.995Z,13.85
2019-05-01T20:15:53.283Z,13.83
2019-05-01T20:18:19.625Z,13.83
2019-05-01T20:20:45.960Z,13.83
2019-05-01T20:23:12.536Z,13.82
2019-05-01T20:25:39.309Z,13.83
2019-05-01T20:28:06.749Z,13.84
2019-05-01T20:30:33.179Z,13.86
2019-05-01T20:33:02.163Z,13.90
2019-05-01T20:35:28.477Z,13.91
2019-05-01T20:37:55.781Z,13.92
2019-05-01T20:40:22.191Z,13.90
2019-05-01T20:42:48.414Z,13.88
2019-05-01T20:45:18.200Z,13.86
2019-05-01T20:47:46.226Z,13.83
2019-05-01T20:50:13.855Z,13.79
2019-05-01T20:52:40.132Z,13.76
2019-05-01T20:55:06.659Z,13.70
2019-05-01T20:57:38.027Z,13.63
2019-05-01T21:00:05.238Z,13.56
2019-05-01T21:02:33.510Z,13.51
2019-05-01T21:05:01.801Z,13.44
2019-05-01T21:07:33.157Z,13.38
2019-05-01T21:10:01.388Z,13.34
2019-05-01T21:12:27.770Z,13.26
2019-05-01T21:14:54.051Z,13.21
2019-05-01T21:17:20.401Z,13.15
2019-05-01T21:19:46.641Z,13.06
2019-05-01T21:22:14.240Z,13.02
2019-05-01T21:24:40.695Z,12.96
2019-05-01T21:27:06.960Z,12.91
2019-05-01T21:29:34.338Z,12.85
2019-05-01T21:32:00.968Z,12.75
2019-05-01T21:34:27.174Z,12.67
2019-05-01T21:36:54.057Z,12.64
2019-05-01T21:39:22.249Z,12.62
2019-05-01T21:41:48.656Z,12.61
2019-05-01T21:44:14.895Z,12.62
2019-05-01T21:46:43.035Z,12.65
2019-05-01T21:49:09.179Z,12.68
2019-05-01T21:51:37.066Z,12.74
2019-05-01T21:54:03.664Z,12.77
2019-05-01T21:56:29.815Z,12.79
2019-05-01T21:58:59.563Z,12.82
2019-05-01T22:01:24.328Z,12.81
2019-05-01T22:03:52.535Z,12.80
2019-05-01T22:06:18.830Z,12.79
2019-05-01T22:08:45.140Z,12.74
2019-05-01T22:11:11.694Z,12.67
2019-05-01T22:13:37.908Z,12.61
2019-05-01T22:16:09.046Z,12.57
2019-05-01T22:18:40.292Z,12.49
2019-05-01T22:21:17.842Z,12.43
2019-05-01T22:24:04.109Z,12.41
2019-05-01T22:26:32.245Z,12.37
2019-05-01T22:29:00.386Z,12.33
2019-05-01T22:31:44.981Z,12.25
2019-05-01T22:34:13.669Z,12.21
2019-05-01T22:36:39.958Z,12.12
2019-05-01T22:39:07.449Z,12.01
2019-05-01T22:41:35.669Z,11.95
2019-05-01T22:44:02.131Z,11.88
2019-05-01T22:46:29.196Z,11.83
2019-05-01T22:48:55.485Z,11.81
2019-05-01T22:51:23.487Z,11.80
2019-05-01T22:53:51.553Z,11.74
2019-05-01T22:56:17.830Z,11.72
2019-05-01T22:58:44.032Z,11.72
2019-05-01T23:01:13.351Z,11.68
2019-05-01T23:03:43.017Z,11.63
2019-05-01T23:06:09.350Z,11.65
2019-05-01T23:08:35.909Z,11.68
2019-05-01T23:11:02.345Z,11.73
2019-05-01T23:13:28.684Z,11.80
2019-05-01T23:15:56.189Z,11.84
2019-05-01T23:18:23.209Z,11.85
2019-05-01T23:20:49.322Z,11.83
2019-05-01T23:23:17.287Z,11.81
2019-05-01T23:25:43.960Z,11.77
2019-05-01T23:28:10.289Z,11.73
2019-05-01T23:30:36.554Z,11.70
2019-05-01T23:33:03.026Z,11.63
2019-05-01T23:35:29.347Z,11.55
2019-05-01T23:37:55.503Z,11.50
2019-05-01T23:40:21.827Z,11.45
2019-05-01T23:42:52.304Z,11.41
2019-05-01T23:45:16.386Z,11.35
2019-05-01T23:47:43.896Z,11.30
2019-05-01T23:50:10.595Z,11.23
2019-05-01T23:52:38.620Z,11.20
2019-05-01T23:55:05.812Z,11.18
2019-05-01T23:57:32.149Z,11.16
2019-05-01T23:59:58.258Z,11.15
